Time;durP1;ratioP1;P1;durP2;ratioP2;P2;SDS_P1;SDS_P2;PMS_P1;PMS_P2;Temp;Humidity;BMP_temperature;BMP_pressure;BME280_temperature;BME280_humidity;BME280_pressure;Samples;Min_cycle;Max_cycle;Signal;HPM_P1;HPM_P2
2023/08/30 00:00:46;;;;;;;27.52;25.27;;;13.40;99.90;;;;;;5061651;28;20076;-71
2023/08/30 00:03:12;;;;;;;28.35;25.95;;;13.50;99.90;;;;;;5060740;28;20058;-71
2023/08/30 00:05:42;;;;;;;27.17;24.98;;;13.50;99.90;;;;;;5046569;28;20067;-71
2023/08/30 00:08:08;;;;;;;26.17;23.98;;;13.50;99.90;;;;;;5077711;28;20044;-71
2023/08/30 00:10:34;;;;;;;26.10;23.92;;;13.50;99.90;;;;;;5060298;28;20054;-71
2023/08/30 00:13:00;;;;;;;28.33;25.92;;;13.50;99.90;;;;;;5042368;28;20044;-71
2023/08/30 00:15:26;;;;;;;27.60;25.30;;;13.40;99.90;;;;;;5058707;28;20537;-71
2023/08/30 00:17:52;;;;;;;29.88;27.50;;;13.50;99.90;;;;;;5059454;28;20690;-71
2023/08/30 00:20:19;;;;;;;28.02;25.73;;;13.40;99.90;;;;;;5055482;28;20064;-71
2023/08/30 00:22:44;;;;;;;30.10;27.52;;;13.40;99.90;;;;;;5060493;28;20055;-71
2023/08/30 00:25:13;;;;;;;28.17;25.63;;;13.40;99.90;;;;;;5058981;28;20104;-71
2023/08/30 00:27:39;;;;;;;27.30;24.98;;;13.50;99.90;;;;;;5061554;28;20506;-71
2023/08/30 00:30:05;;;;;;;25.52;23.52;;;13.40;99.90;;;;;;5062231;28;20079;-71
2023/08/30 00:32:31;;;;;;;26.33;23.92;;;13.40;99.90;;;;;;5060189;28;20048;-71
2023/08/30 00:34:56;;;;;;;26.58;24.40;;;13.40;99.90;;;;;;5045455;28;20040;-75
2023/08/30 00:37:23;;;;;;;24.48;22.38;;;13.40;99.90;;;;;;5058699;28;20156;-75
2023/08/30 00:39:49;;;;;;;27.05;24.75;;;13.40;99.90;;;;;;5062049;28;20036;-72
2023/08/30 00:42:15;;;;;;;23.70;21.63;;;13.40;99.90;;;;;;5060589;28;20364;-71
2023/08/30 00:44:43;;;;;;;24.10;22.10;;;13.40;99.90;;;;;;5044716;28;20122;-71
2023/08/30 00:47:09;;;;;;;26.10;23.73;;;13.40;99.90;;;;;;5037075;28;20044;-71
2023/08/30 00:49:35;;;;;;;23.60;21.65;;;13.40;99.90;;;;;;5044468;28;20037;-71
2023/08/30 00:52:08;;;;;;;22.00;20.20;;;13.40;99.90;;;;;;5041741;28;20072;-71
2023/08/30 00:54:35;;;;;;;24.38;22.33;;;13.40;99.90;;;;;;5058868;28;20060;-72
2023/08/30 00:57:01;;;;;;;21.65;19.75;;;13.30;99.90;;;;;;5059708;28;20126;-71
2023/08/30 00:59:27;;;;;;;21.95;20.02;;;13.30;99.90;;;;;;5043981;28;20103;-71
2023/08/30 01:01:55;;;;;;;21.15;19.35;;;13.30;99.90;;;;;;5038040;28;20056;-71
2023/08/30 01:04:21;;;;;;;21.95;20.00;;;13.30;99.90;;;;;;5040633;28;20127;-72
2023/08/30 01:06:48;;;;;;;21.42;19.42;;;13.30;99.90;;;;;;5045396;28;20048;-71
2023/08/30 01:09:15;;;;;;;21.83;19.83;;;13.20;99.90;;;;;;5054425;28;20045;-71
2023/08/30 01:11:53;;;;;;;21.92;20.13;;;13.30;99.90;;;;;;5061446;28;20479;-72
2023/08/30 01:14:29;;;;;;;22.52;20.60;;;13.30;99.90;;;;;;5045791;28;20099;-71
2023/08/30 01:16:57;;;;;;;21.60;19.80;;;13.30;99.90;;;;;;5058895;28;20045;-71
2023/08/30 01:19:44;;;;;;;21.25;19.48;;;13.30;99.90;;;;;;5044995;28;20075;-71
2023/08/30 01:22:25;;;;;;;22.70;20.80;;;13.30;99.90;;;;;;5090431;28;20450;-71
2023/08/30 01:25:27;;;;;;;19.90;18.13;;;13.30;99.90;;;;;;5060136;28;20052;-71
2023/08/30 01:27:54;;;;;;;22.33;20.42;;;13.30;99.90;;;;;;5054629;28;20113;-71
2023/08/30 01:30:21;;;;;;;20.52;18.77;;;13.20;99.90;;;;;;5060436;28;20120;-71
2023/08/30 01:32:50;;;;;;;21.15;19.33;;;13.30;99.90;;;;;;5055848;28;20059;-72
2023/08/30 01:35:17;;;;;;;19.92;18.15;;;13.30;99.90;;;;;;5053715;28;20040;-71
2023/08/30 01:37:45;;;;;;;24.52;22.27;;;13.30;99.90;;;;;;5056347;28;20059;-71
2023/08/30 01:40:13;;;;;;;21.40;19.58;;;13.30;99.90;;;;;;5058507;28;20142;-71
2023/08/30 01:42:44;;;;;;;21.05;19.33;;;13.30;99.90;;;;;;5060671;28;20240;-71
2023/08/30 01:45:13;;;;;;;20.65;18.95;;;13.30;99.90;;;;;;5059800;28;20419;-71
2023/08/30 01:47:43;;;;;;;22.13;20.17;;;13.30;99.90;;;;;;5059507;28;20121;-71
2023/08/30 01:50:13;;;;;;;24.20;22.00;;;13.30;99.90;;;;;;5044594;28;20131;-72
2023/08/30 01:52:39;;;;;;;25.17;22.88;;;13.30;99.90;;;;;;5040154;28;20044;-72
2023/08/30 01:55:07;;;;;;;19.83;18.05;;;13.30;99.90;;;;;;5057877;28;20194;-72
2023/08/30 01:57:33;;;;;;;21.23;19.30;;;13.30;99.90;;;;;;5038324;28;20122;-72
2023/08/30 01:59:59;;;;;;;20.73;18.83;;;13.30;99.90;;;;;;5057930;28;20513;-71
2023/08/30 02:02:29;;;;;;;20.38;18.63;;;13.30;99.90;;;;;;5050629;28;21034;-71
2023/08/30 02:04:55;;;;;;;21.50;19.70;;;13.30;99.90;;;;;;5059153;28;20708;-71
2023/08/30 02:07:43;;;;;;;19.30;17.38;;;13.30;99.90;;;;;;5059178;28;20045;-71
2023/08/30 02:10:15;;;;;;;18.67;17.08;;;13.20;99.90;;;;;;5057375;28;20059;-72
2023/08/30 02:12:48;;;;;;;17.60;16.10;;;13.20;99.90;;;;;;5036437;28;20067;-72
2023/08/30 02:15:16;;;;;;;19.70;17.90;;;13.20;99.90;;;;;;5056884;28;20530;-71
2023/08/30 02:17:43;;;;;;;18.45;16.70;;;13.20;99.90;;;;;;5036803;28;20060;-71
2023/08/30 02:20:09;;;;;;;18.98;17.33;;;13.10;99.90;;;;;;5045059;28;20036;-72
2023/08/30 02:22:35;;;;;;;18.90;17.30;;;13.10;99.90;;;;;;5046332;28;20740;-71
2023/08/30 02:25:04;;;;;;;18.67;17.08;;;13.00;99.90;;;;;;5041988;28;20048;-72
2023/08/30 02:27:34;;;;;;;19.08;17.38;;;13.00;99.90;;;;;;5056641;28;20075;-71
2023/08/30 02:30:00;;;;;;;17.75;16.15;;;13.00;99.90;;;;;;5040260;28;20219;-71
2023/08/30 02:32:26;;;;;;;17.15;15.55;;;13.00;99.90;;;;;;5044335;28;20105;-71
2023/08/30 02:34:53;;;;;;;17.27;15.77;;;13.00;99.90;;;;;;5045636;28;20426;-71
2023/08/30 02:37:19;;;;;;;17.23;15.75;;;13.00;99.90;;;;;;5051780;28;20123;-71
2023/08/30 02:39:45;;;;;;;15.98;14.60;;;13.00;99.90;;;;;;5056934;28;20507;-72
2023/08/30 02:42:11;;;;;;;17.88;16.33;;;12.90;99.90;;;;;;5046292;28;20047;-72
2023/08/30 02:44:37;;;;;;;18.67;16.98;;;12.90;99.90;;;;;;5052878;28;20107;-72
2023/08/30 02:47:03;;;;;;;17.23;15.68;;;12.90;99.90;;;;;;5053875;28;20040;-71
2023/08/30 02:49:28;;;;;;;17.98;16.38;;;12.90;99.90;;;;;;5056324;28;20103;-71
2023/08/30 02:51:57;;;;;;;17.83;16.23;;;12.90;99.90;;;;;;5049702;28;20033;-71
2023/08/30 02:54:23;;;;;;;18.38;16.67;;;13.00;99.90;;;;;;5049014;28;20051;-71
2023/08/30 02:56:49;;;;;;;18.38;16.77;;;13.00;99.90;;;;;;5039096;28;20049;-71
2023/08/30 02:59:15;;;;;;;17.27;15.77;;;12.90;99.90;;;;;;5042344;28;20118;-71
2023/08/30 03:01:41;;;;;;;18.42;16.73;;;12.90;99.90;;;;;;5043545;28;20380;-71
2023/08/30 03:04:08;;;;;;;18.77;16.98;;;13.00;99.90;;;;;;5058787;28;20431;-71
2023/08/30 03:06:36;;;;;;;17.70;16.10;;;13.00;99.90;;;;;;5057997;28;20033;-71
2023/08/30 03:09:03;;;;;;;17.13;15.60;;;13.00;99.90;;;;;;5059480;28;20049;-71
2023/08/30 03:11:29;;;;;;;17.27;15.77;;;13.00;99.90;;;;;;5035320;28;20044;-71
2023/08/30 03:13:55;;;;;;;16.98;15.48;;;12.90;99.90;;;;;;5037994;28;20052;-71
2023/08/30 03:16:21;;;;;;;16.23;14.73;;;12.90;99.90;;;;;;5049399;28;20122;-71
2023/08/30 03:18:47;;;;;;;18.42;16.73;;;12.80;99.90;;;;;;5056750;28;20060;-72
2023/08/30 03:21:13;;;;;;;21.95;19.92;;;12.80;99.90;;;;;;5060003;28;20075;-71
2023/08/30 03:23:40;;;;;;;18.42;16.83;;;12.80;99.90;;;;;;5064670;28;20044;-73
2023/08/30 03:26:10;;;;;;;20.77;18.88;;;12.70;99.90;;;;;;5047993;28;20033;-72
2023/08/30 03:28:37;;;;;;;17.33;15.82;;;12.70;99.90;;;;;;5097685;27;20098;-72
2023/08/30 03:31:18;;;;;;;19.45;17.50;;;12.70;99.90;;;;;;5061975;28;20044;-73
2023/08/30 03:33:44;;;;;;;18.35;16.75;;;12.60;99.90;;;;;;5057879;28;20593;-72
2023/08/30 03:36:12;;;;;;;19.60;17.73;;;12.60;99.90;;;;;;5059371;28;20048;-72
2023/08/30 03:38:38;;;;;;;19.92;18.02;;;12.60;99.90;;;;;;5058516;28;20044;-72
2023/08/30 03:41:04;;;;;;;19.27;17.63;;;12.50;99.90;;;;;;5052622;28;20044;-72
2023/08/30 03:43:33;;;;;;;20.98;19.08;;;12.50;99.90;;;;;;5068858;28;20041;-72
2023/08/30 03:46:03;;;;;;;22.52;20.38;;;12.50;99.90;;;;;;5063415;28;20040;-72
2023/08/30 03:48:29;;;;;;;19.63;17.83;;;12.40;99.90;;;;;;5059557;28;20040;-72
2023/08/30 03:50:55;;;;;;;21.02;19.13;;;12.50;99.90;;;;;;5049354;28;20455;-72
2023/08/30 03:53:22;;;;;;;20.55;18.73;;;12.40;99.90;;;;;;5063619;28;20583;-73
2023/08/30 03:55:48;;;;;;;20.77;18.98;;;12.40;99.90;;;;;;5066773;28;20049;-73
2023/08/30 03:58:13;;;;;;;20.83;19.00;;;12.40;99.90;;;;;;5067356;28;20037;-72
2023/08/30 04:00:39;;;;;;;21.67;19.58;;;12.30;99.90;;;;;;5049967;28;20052;-72
2023/08/30 04:03:11;;;;;;;20.95;19.15;;;12.30;99.90;;;;;;5042041;28;20061;-72
2023/08/30 04:05:37;;;;;;;21.33;19.42;;;12.30;99.90;;;;;;5049515;28;20134;-73
2023/08/30 04:08:07;;;;;;;20.85;19.02;;;12.40;99.90;;;;;;5048072;28;20063;-73
2023/08/30 04:10:41;;;;;;;21.17;19.27;;;12.40;99.90;;;;;;5061392;28;20580;-73
2023/08/30 04:13:08;;;;;;;21.35;19.55;;;12.40;99.90;;;;;;5060287;28;20045;-72
2023/08/30 04:15:35;;;;;;;20.70;18.85;;;12.40;99.90;;;;;;5061153;28;20048;-72
2023/08/30 04:18:02;;;;;;;21.98;19.88;;;12.30;99.90;;;;;;5043290;28;20514;-73
2023/08/30 04:20:28;;;;;;;22.67;20.67;;;12.40;99.90;;;;;;5051803;28;20527;-72
2023/08/30 04:22:55;;;;;;;21.92;19.83;;;12.40;99.90;;;;;;5064748;28;20052;-72
2023/08/30 04:25:20;;;;;;;20.90;19.05;;;12.40;99.90;;;;;;5060202;28;20059;-72
2023/08/30 04:27:46;;;;;;;21.65;19.75;;;12.40;99.90;;;;;;5051875;28;20037;-73
2023/08/30 04:30:12;;;;;;;22.70;20.58;;;12.40;99.90;;;;;;5049501;28;20114;-72
2023/08/30 04:32:38;;;;;;;20.85;19.10;;;12.40;99.90;;;;;;5045017;28;20052;-72
2023/08/30 04:35:04;;;;;;;22.05;19.95;;;12.40;99.90;;;;;;5061357;28;20044;-72
2023/08/30 04:37:33;;;;;;;21.60;19.67;;;12.50;99.90;;;;;;5062092;28;20655;-72
2023/08/30 04:39:59;;;;;;;23.33;21.27;;;12.50;99.90;;;;;;5063077;28;20123;-73
2023/08/30 04:42:26;;;;;;;21.40;19.50;;;12.50;99.90;;;;;;5055893;28;20182;-72
2023/08/30 04:44:54;;;;;;;23.30;21.20;;;12.50;99.90;;;;;;5044175;28;20048;-72
2023/08/30 04:47:20;;;;;;;23.23;21.23;;;12.40;99.90;;;;;;5052880;28;20243;-72
2023/08/30 04:49:53;;;;;;;22.20;20.27;;;12.40;99.90;;;;;;5062161;28;20131;-72
2023/08/30 04:52:19;;;;;;;24.05;21.77;;;12.40;99.90;;;;;;5062916;28;20201;-72
2023/08/30 04:54:45;;;;;;;24.10;21.70;;;12.40;99.90;;;;;;5061792;28;20427;-72
2023/08/30 04:57:14;;;;;;;24.90;22.20;;;12.40;99.90;;;;;;5054455;28;20494;-73
2023/08/30 04:59:44;;;;;;;23.58;21.27;;;12.50;99.90;;;;;;5049482;28;20051;-72
2023/08/30 05:02:13;;;;;;;21.75;19.58;;;12.40;99.90;;;;;;5062520;28;20076;-72
2023/08/30 05:04:39;;;;;;;22.02;19.98;;;12.50;99.90;;;;;;5053281;28;20048;-72
2023/08/30 05:07:04;;;;;;;23.08;20.98;;;12.50;99.90;;;;;;5062249;28;20252;-72
2023/08/30 05:09:32;;;;;;;22.05;19.90;;;12.50;99.90;;;;;;5038915;28;20346;-72
2023/08/30 05:11:58;;;;;;;23.83;21.40;;;12.50;99.90;;;;;;5034929;28;20048;-73
2023/08/30 05:14:24;;;;;;;22.10;19.98;;;12.50;99.90;;;;;;5054291;28;20507;-72
2023/08/30 05:16:50;;;;;;;24.20;21.63;;;12.60;99.90;;;;;;5044780;28;20076;-72
2023/08/30 05:19:16;;;;;;;22.67;20.60;;;12.60;99.90;;;;;;5047394;28;20089;-72
2023/08/30 05:21:43;;;;;;;22.60;20.60;;;12.60;99.90;;;;;;5047756;28;20036;-71
2023/08/30 05:24:10;;;;;;;21.88;19.85;;;12.60;99.90;;;;;;5052548;28;20542;-71
2023/08/30 05:26:38;;;;;;;23.05;20.95;;;12.60;99.90;;;;;;5039751;28;20534;-71
2023/08/30 05:29:04;;;;;;;22.48;20.35;;;12.60;99.90;;;;;;5054155;28;20044;-72
2023/08/30 05:31:30;;;;;;;21.27;19.38;;;12.70;99.90;;;;;;5058808;28;20231;-72
2023/08/30 05:33:56;;;;;;;21.55;19.48;;;12.60;99.90;;;;;;5056846;28;20041;-71
2023/08/30 05:36:21;;;;;;;21.63;19.73;;;12.70;99.90;;;;;;5055429;28;20726;-71
2023/08/30 05:38:50;;;;;;;20.92;19.02;;;12.70;99.90;;;;;;5056831;28;20047;-71
2023/08/30 05:41:16;;;;;;;21.63;19.52;;;12.70;99.90;;;;;;5102725;27;20047;-71
2023/08/30 05:43:42;;;;;;;20.58;18.63;;;12.80;99.90;;;;;;5061077;28;20033;-71
2023/08/30 05:46:14;;;;;;;20.45;18.55;;;12.80;99.90;;;;;;5061866;28;21214;-71
2023/08/30 05:48:43;;;;;;;20.60;18.70;;;12.80;99.90;;;;;;5058915;28;20091;-72
2023/08/30 05:51:09;;;;;;;20.95;18.85;;;12.90;99.90;;;;;;5060604;28;20040;-71
2023/08/30 05:53:34;;;;;;;20.40;18.50;;;12.90;99.90;;;;;;5054366;28;20032;-71
2023/08/30 05:56:00;;;;;;;20.25;18.38;;;12.90;99.90;;;;;;5057785;28;20056;-72
2023/08/30 05:58:26;;;;;;;18.45;16.70;;;12.90;99.90;;;;;;5054948;28;20079;-71
2023/08/30 06:00:52;;;;;;;19.73;17.70;;;13.00;99.90;;;;;;5049352;28;20074;-71
2023/08/30 06:03:21;;;;;;;19.10;17.20;;;13.00;99.90;;;;;;5043342;28;20116;-71
2023/08/30 06:05:48;;;;;;;20.30;18.25;;;13.00;99.90;;;;;;5056682;28;20067;-71
2023/08/30 06:08:14;;;;;;;20.08;18.08;;;13.00;99.90;;;;;;5040010;28;20045;-71
2023/08/30 06:10:45;;;;;;;19.60;17.70;;;13.10;99.90;;;;;;5036492;28;20037;-71
2023/08/30 06:13:12;;;;;;;18.58;16.88;;;13.10;99.90;;;;;;5062007;28;20503;-71
2023/08/30 06:15:38;;;;;;;19.60;17.50;;;13.10;99.90;;;;;;5055718;28;20059;-71
2023/08/30 06:18:04;;;;;;;19.00;17.20;;;13.10;99.90;;;;;;5060807;28;20136;-71
2023/08/30 06:20:30;;;;;;;21.30;19.25;;;13.10;99.90;;;;;;5060984;28;20490;-71
2023/08/30 06:22:58;;;;;;;20.33;18.23;;;13.20;99.90;;;;;;5067571;28;20040;-71
2023/08/30 06:25:24;;;;;;;19.13;17.23;;;13.20;99.90;;;;;;5046643;28;20366;-71
2023/08/30 06:27:58;;;;;;;19.00;16.75;;;13.20;99.90;;;;;;5041544;28;20173;-71
2023/08/30 06:30:25;;;;;;;20.45;18.48;;;13.20;99.90;;;;;;5055736;28;20127;-71
2023/08/30 06:32:51;;;;;;;20.35;18.27;;;13.30;99.90;;;;;;5058318;28;20376;-71
2023/08/30 06:35:17;;;;;;;20.02;18.13;;;13.30;99.90;;;;;;5069101;28;20089;-71
2023/08/30 06:37:42;;;;;;;20.00;17.90;;;13.40;99.90;;;;;;5064774;28;20049;-71
2023/08/30 06:40:09;;;;;;;18.88;16.98;;;13.40;99.90;;;;;;5057314;28;20772;-71
2023/08/30 06:42:34;;;;;;;19.77;17.80;;;13.50;99.90;;;;;;5042400;28;20048;-71
2023/08/30 06:45:02;;;;;;;19.20;17.27;;;13.50;99.90;;;;;;5052628;28;20427;-71
2023/08/30 06:47:28;;;;;;;18.13;16.35;;;13.60;99.90;;;;;;5055441;28;20106;-71
2023/08/30 06:50:00;;;;;;;18.48;16.58;;;13.60;99.90;;;;;;5042307;28;20598;-71
2023/08/30 06:52:27;;;;;;;18.55;16.75;;;13.70;99.90;;;;;;5046413;28;20056;-71
2023/08/30 06:54:53;;;;;;;20.25;17.38;;;13.70;99.90;;;;;;5040085;28;20198;-71
2023/08/30 06:57:18;;;;;;;18.38;16.58;;;13.70;99.90;;;;;;5053184;28;20569;-71
2023/08/30 06:59:44;;;;;;;19.50;17.50;;;13.70;99.90;;;;;;5049276;28;21446;-71
2023/08/30 07:02:10;;;;;;;17.65;15.93;;;13.80;99.90;;;;;;5050611;28;20041;-71
2023/08/30 07:04:36;;;;;;;18.83;17.02;;;13.80;99.90;;;;;;5049635;28;20051;-71
2023/08/30 07:07:02;;;;;;;19.10;17.20;;;13.70;99.90;;;;;;5064752;28;20037;-71
2023/08/30 07:09:28;;;;;;;18.85;16.95;;;13.80;99.90;;;;;;5053583;28;20044;-71
2023/08/30 07:11:55;;;;;;;18.65;16.75;;;13.80;99.90;;;;;;5043053;28;20040;-71
2023/08/30 07:14:21;;;;;;;17.95;16.02;;;13.80;99.90;;;;;;5065836;28;20423;-71
2023/08/30 07:16:49;;;;;;;17.73;15.90;;;13.90;99.90;;;;;;5064563;28;20295;-71
2023/08/30 07:19:17;;;;;;;18.20;16.33;;;13.90;99.90;;;;;;5048177;28;20057;-71
2023/08/30 07:21:43;;;;;;;17.15;15.50;;;13.90;99.90;;;;;;5056596;28;20530;-71
2023/08/30 07:24:09;;;;;;;18.73;16.92;;;13.90;99.90;;;;;;5046687;28;20066;-71
2023/08/30 07:26:36;;;;;;;18.35;16.55;;;14.00;99.90;;;;;;5048239;28;20488;-71
2023/08/30 07:29:04;;;;;;;18.55;16.75;;;14.00;99.90;;;;;;5059851;28;20055;-71
2023/08/30 07:31:33;;;;;;;17.30;15.50;;;14.10;99.90;;;;;;5048741;28;20045;-71
2023/08/30 07:33:59;;;;;;;18.60;16.80;;;14.20;99.90;;;;;;5048243;28;20056;-71
2023/08/30 07:36:29;;;;;;;17.67;15.98;;;14.20;99.90;;;;;;5049508;28;20048;-71
2023/08/30 07:39:01;;;;;;;18.98;17.02;;;14.30;99.90;;;;;;5060785;28;20048;-71
2023/08/30 07:41:27;;;;;;;17.45;15.75;;;14.40;99.90;;;;;;5043536;28;20148;-71
2023/08/30 07:43:53;;;;;;;17.27;15.38;;;14.50;99.90;;;;;;5046426;28;20048;-71
2023/08/30 07:46:19;;;;;;;17.30;15.45;;;14.60;99.90;;;;;;5066292;28;20407;-71
2023/08/30 07:48:45;;;;;;;16.83;15.23;;;14.80;99.90;;;;;;5048065;28;20037;-71
2023/08/30 07:51:13;;;;;;;17.10;15.30;;;14.90;99.90;;;;;;5061444;28;20037;-71
2023/08/30 07:53:42;;;;;;;16.83;15.13;;;15.00;99.90;;;;;;5066722;28;20035;-71
2023/08/30 07:56:08;;;;;;;16.10;14.43;;;15.10;99.90;;;;;;5060550;28;20036;-71
2023/08/30 07:58:37;;;;;;;17.35;15.65;;;15.20;99.90;;;;;;5055831;28;20075;-71
2023/08/30 08:01:03;;;;;;;16.67;15.05;;;15.30;99.90;;;;;;5059761;28;20475;-71
2023/08/30 08:03:29;;;;;;;17.42;15.73;;;15.30;99.90;;;;;;5065507;28;20039;-71
2023/08/30 08:05:54;;;;;;;17.15;15.45;;;15.40;99.90;;;;;;5064201;28;20064;-71
2023/08/30 08:08:20;;;;;;;18.40;16.55;;;15.50;99.90;;;;;;5056215;28;20048;-71
2023/08/30 08:10:49;;;;;;;18.48;16.42;;;15.50;99.90;;;;;;5042612;28;20041;-71
2023/08/30 08:13:14;;;;;;;18.15;16.35;;;15.60;99.90;;;;;;5065562;28;20141;-71
2023/08/30 08:15:46;;;;;;;17.10;15.43;;;15.60;99.90;;;;;;5049956;28;20052;-71
2023/08/30 08:18:12;;;;;;;19.60;15.75;;;15.70;99.90;;;;;;5059240;28;20049;-71
2023/08/30 08:20:39;;;;;;;18.17;16.30;;;15.70;99.90;;;;;;5054385;28;20059;-72
2023/08/30 08:23:05;;;;;;;17.17;15.45;;;15.70;99.90;;;;;;5042674;28;20088;-72
2023/08/30 08:25:30;;;;;;;17.85;16.05;;;15.70;99.90;;;;;;5053575;28;20213;-72
2023/08/30 08:27:56;;;;;;;17.67;15.73;;;15.70;99.90;;;;;;5051239;28;20044;-72
2023/08/30 08:30:22;;;;;;;16.58;14.90;;;15.60;99.90;;;;;;5053081;28;20123;-71
2023/08/30 08:32:48;;;;;;;17.20;15.40;;;15.70;99.90;;;;;;5057134;28;20045;-72
2023/08/30 08:35:14;;;;;;;18.35;16.17;;;15.60;99.90;;;;;;5042789;28;20094;-72
2023/08/30 08:37:40;;;;;;;17.95;16.23;;;15.70;99.90;;;;;;5054969;28;20488;-72
2023/08/30 08:40:08;;;;;;;19.73;17.50;;;15.70;99.90;;;;;;5054023;28;20139;-72
2023/08/30 08:42:35;;;;;;;16.05;14.45;;;15.70;99.90;;;;;;5033808;28;20127;-71
2023/08/30 08:45:04;;;;;;;19.13;17.17;;;15.80;99.90;;;;;;5047017;28;20102;-72
2023/08/30 08:47:32;;;;;;;16.40;14.93;;;15.80;99.90;;;;;;5052710;28;20132;-71
2023/08/30 08:50:00;;;;;;;15.98;14.48;;;15.80;99.90;;;;;;5049164;28;20053;-72
2023/08/30 08:52:26;;;;;;;17.75;15.43;;;15.80;99.90;;;;;;5061221;28;20079;-72
2023/08/30 08:54:54;;;;;;;14.77;13.27;;;15.80;99.90;;;;;;5057462;28;20048;-71
2023/08/30 08:57:21;;;;;;;16.65;13.68;;;15.80;99.90;;;;;;5054241;28;20052;-71
2023/08/30 08:59:47;;;;;;;15.82;14.32;;;15.70;99.90;;;;;;5035838;28;20039;-71
2023/08/30 09:02:14;;;;;;;16.08;14.18;;;15.70;99.90;;;;;;5042295;28;20040;-71
2023/08/30 09:04:43;;;;;;;17.08;15.38;;;15.60;99.90;;;;;;5056799;28;20036;-71
2023/08/30 09:07:09;;;;;;;16.10;14.45;;;15.60;99.90;;;;;;5054649;28;20120;-71
2023/08/30 09:09:36;;;;;;;16.10;14.43;;;15.60;99.90;;;;;;5059377;28;20052;-71
2023/08/30 09:12:03;;;;;;;16.55;14.95;;;15.50;99.90;;;;;;5055159;28;20052;-71
2023/08/30 09:14:28;;;;;;;16.67;15.07;;;15.50;99.90;;;;;;5037053;28;20052;-70
2023/08/30 09:17:03;;;;;;;16.73;15.02;;;15.40;99.90;;;;;;5032600;28;20041;-71
2023/08/30 09:19:30;;;;;;;15.35;13.85;;;15.50;99.90;;;;;;5038787;28;20129;-71
2023/08/30 09:21:58;;;;;;;18.35;14.38;;;15.40;99.90;;;;;;5038405;28;20526;-70
2023/08/30 09:24:24;;;;;;;17.15;15.35;;;15.40;99.90;;;;;;5050442;28;20141;-71
2023/08/30 09:26:52;;;;;;;16.15;14.48;;;15.30;99.90;;;;;;5053858;28;20048;-72
2023/08/30 09:29:19;;;;;;;16.35;14.75;;;15.30;99.90;;;;;;5047707;28;20045;-72
2023/08/30 09:31:45;;;;;;;15.63;14.10;;;15.20;99.90;;;;;;5050213;28;20040;-72
2023/08/30 09:34:11;;;;;;;16.27;14.57;;;15.20;99.90;;;;;;5055682;28;20439;-72
2023/08/30 09:36:38;;;;;;;16.58;14.90;;;15.10;99.90;;;;;;5037973;28;20044;-72
2023/08/30 09:39:12;;;;;;;16.88;15.13;;;15.10;99.90;;;;;;5052929;28;20052;-71
2023/08/30 09:41:41;;;;;;;20.75;16.50;;;15.00;99.90;;;;;;5050357;28;20051;-72
2023/08/30 09:44:13;;;;;;;15.75;14.05;;;15.00;99.90;;;;;;5039383;28;20383;-72
2023/08/30 09:46:46;;;;;;;18.02;16.08;;;14.90;99.90;;;;;;5052806;28;20360;-73
2023/08/30 09:49:12;;;;;;;15.20;13.60;;;14.80;99.90;;;;;;5040426;28;20316;-72
2023/08/30 09:51:42;;;;;;;14.55;13.13;;;14.80;99.90;;;;;;5057033;28;20040;-72
2023/08/30 09:54:23;;;;;;;16.02;14.45;;;14.80;99.90;;;;;;5060286;28;20331;-72
2023/08/30 09:56:52;;;;;;;16.20;14.60;;;14.80;99.90;;;;;;5043436;28;20037;-73
2023/08/30 09:59:18;;;;;;;17.42;15.50;;;14.80;99.90;;;;;;5042928;28;20045;-72
2023/08/30 10:01:48;;;;;;;18.67;16.67;;;14.80;99.90;;;;;;5066339;28;20117;-72
2023/08/30 10:04:15;;;;;;;14.57;13.18;;;14.80;99.90;;;;;;5058252;28;20045;-72
2023/08/30 10:06:41;;;;;;;16.02;14.43;;;14.90;99.90;;;;;;5048105;28;20078;-72
2023/08/30 10:09:09;;;;;;;14.82;13.43;;;14.90;99.90;;;;;;5058765;28;20131;-72
2023/08/30 10:11:36;;;;;;;16.48;14.90;;;15.00;99.90;;;;;;5044032;28;20536;-72
2023/08/30 10:14:07;;;;;;;17.02;15.32;;;15.10;99.90;;;;;;5051348;28;20195;-72
2023/08/30 10:16:51;;;;;;;;;;;15.20;99.90;;;;;;5057247;28;20041;-72
2023/08/30 10:19:22;;;;;;;17.80;16.15;;;15.20;99.90;;;;;;5051569;28;19924;-71
2023/08/30 10:21:51;;;;;;;19.33;17.42;;;15.30;99.90;;;;;;5049306;28;20048;-72
2023/08/30 10:24:20;;;;;;;18.40;16.50;;;15.30;99.90;;;;;;5043398;28;20048;-72
2023/08/30 10:26:46;;;;;;;19.83;17.98;;;15.40;99.90;;;;;;5042281;28;20035;-72
2023/08/30 10:29:15;;;;;;;21.27;19.15;;;15.40;99.90;;;;;;5044701;28;20087;-72
2023/08/30 10:31:41;;;;;;;19.15;17.25;;;15.50;99.90;;;;;;5046681;28;20050;-71
2023/08/30 10:34:18;;;;;;;21.77;19.52;;;15.60;99.90;;;;;;5044937;28;20040;-72
2023/08/30 10:36:45;;;;;;;18.55;16.75;;;15.60;99.90;;;;;;5068135;28;20079;-72
2023/08/30 10:39:15;;;;;;;18.55;16.80;;;15.70;99.90;;;;;;5043461;28;20514;-72
2023/08/30 10:41:57;;;;;;;18.95;17.15;;;15.70;99.90;;;;;;5052301;28;20097;-71
2023/08/30 10:44:23;;;;;;;17.05;15.40;;;15.70;99.90;;;;;;5061050;28;20407;-72
2023/08/30 10:46:54;;;;;;;16.63;14.90;;;15.60;99.90;;;;;;5058819;28;20691;-72
2023/08/30 10:49:20;;;;;;;17.98;16.05;;;15.60;99.90;;;;;;5048800;28;20101;-72
2023/08/30 10:51:56;;;;;;;19.10;17.20;;;15.50;99.90;;;;;;5058759;28;20535;-72
2023/08/30 10:54:23;;;;;;;18.70;16.90;;;15.50;99.90;;;;;;5056316;28;20045;-72
2023/08/30 10:57:01;;;;;;;18.02;15.93;;;15.50;99.90;;;;;;5044955;28;20158;-72
2023/08/30 10:59:27;;;;;;;15.68;14.13;;;15.40;99.90;;;;;;5050318;28;20495;-72
2023/08/30 11:01:53;;;;;;;17.42;15.60;;;15.40;99.90;;;;;;5050624;28;20072;-73
2023/08/30 11:04:21;;;;;;;16.35;14.80;;;15.40;99.90;;;;;;5052803;28;20103;-74
2023/08/30 11:06:49;;;;;;;19.25;17.35;;;15.40;99.90;;;;;;5058300;28;20111;-71
2023/08/30 11:09:20;;;;;;;18.92;16.75;;;15.30;99.90;;;;;;5048536;28;20053;-72
2023/08/30 11:11:46;;;;;;;18.17;16.30;;;15.30;99.90;;;;;;5058767;28;20128;-72
2023/08/30 11:14:13;;;;;;;17.15;15.57;;;15.30;99.90;;;;;;5047108;28;20414;-72
2023/08/30 11:16:39;;;;;;;17.40;15.82;;;15.30;99.90;;;;;;5057010;28;20051;-72
2023/08/30 11:19:07;;;;;;;17.95;16.20;;;15.30;99.90;;;;;;5052601;28;20053;-72
2023/08/30 11:21:36;;;;;;;17.55;15.85;;;15.30;99.90;;;;;;5048682;28;20099;-72
2023/08/30 11:24:06;;;;;;;16.52;14.93;;;15.30;99.90;;;;;;5043657;28;20052;-73
2023/08/30 11:26:32;;;;;;;16.25;14.40;;;15.20;99.90;;;;;;5038489;28;20088;-72
2023/08/30 11:29:04;;;;;;;17.08;15.50;;;15.20;99.90;;;;;;5052795;28;20064;-73
2023/08/30 11:31:31;;;;;;;17.65;16.02;;;15.20;99.90;;;;;;5047696;28;20041;-73
2023/08/30 11:33:58;;;;;;;17.35;15.65;;;15.20;99.90;;;;;;5045030;28;20076;-72
2023/08/30 11:36:27;;;;;;;16.00;14.50;;;15.20;99.90;;;;;;5044367;28;20094;-72
2023/08/30 11:38:56;;;;;;;16.35;14.75;;;15.10;99.90;;;;;;5036281;28;20048;-72
2023/08/30 11:41:25;;;;;;;16.13;13.90;;;15.10;99.90;;;;;;5055349;28;20052;-72
2023/08/30 11:43:52;;;;;;;16.15;14.65;;;15.00;99.90;;;;;;5042444;28;20041;-73
2023/08/30 11:46:19;;;;;;;17.13;15.52;;;15.00;99.90;;;;;;5051181;28;20056;-73
2023/08/30 11:48:47;;;;;;;16.05;14.65;;;15.00;99.90;;;;;;5054142;28;20390;-72
2023/08/30 11:51:13;;;;;;;18.23;16.58;;;15.00;99.90;;;;;;5063006;28;20040;-72
2023/08/30 11:53:43;;;;;;;16.80;15.20;;;15.00;99.90;;;;;;5042256;28;20076;-72
2023/08/30 11:56:12;;;;;;;19.60;17.58;;;15.00;99.90;;;;;;5056417;28;20045;-72
2023/08/30 11:58:38;;;;;;;17.60;15.90;;;15.00;99.90;;;;;;5060657;28;20089;-72
2023/08/30 12:01:05;;;;;;;22.48;20.13;;;15.00;99.90;;;;;;5031909;28;20045;-72
2023/08/30 12:03:31;;;;;;;16.88;15.40;;;15.00;99.90;;;;;;5058179;28;20044;-72
2023/08/30 12:05:58;;;;;;;20.42;18.45;;;15.00;99.90;;;;;;5039838;28;20048;-73
2023/08/30 12:08:30;;;;;;;16.65;14.95;;;15.00;99.90;;;;;;5043865;28;20075;-73
2023/08/30 12:10:56;;;;;;;23.63;21.17;;;15.10;99.90;;;;;;5059632;28;20035;-72
2023/08/30 12:13:48;;;;;;;17.48;15.82;;;15.20;99.90;;;;;;5046863;28;20041;-72
2023/08/30 12:16:18;;;;;;;17.05;15.45;;;15.20;99.90;;;;;;5044588;28;20041;-73
2023/08/30 12:18:44;;;;;;;16.63;15.18;;;15.20;99.90;;;;;;5052995;28;20047;-72
2023/08/30 12:21:13;;;;;;;15.80;14.30;;;15.20;99.90;;;;;;5048934;28;20131;-73
2023/08/30 12:23:38;;;;;;;18.27;16.67;;;15.20;99.90;;;;;;5055294;28;20514;-72
2023/08/30 12:26:06;;;;;;;19.17;17.48;;;15.20;99.90;;;;;;5051440;28;20048;-72
2023/08/30 12:28:35;;;;;;;18.63;16.83;;;15.20;99.90;;;;;;5058305;28;20040;-72
2023/08/30 12:31:01;;;;;;;17.52;15.93;;;15.20;99.90;;;;;;5053576;28;20076;-72